Time;durP1;ratioP1;P1;durP2;ratioP2;P2;SDS_P1;SDS_P2;PMS_P1;PMS_P2;Temp;Humidity;BMP_temperature;BMP_pressure;BME280_temperature;BME280_humidity;BME280_pressure;Samples;Min_cycle;Max_cycle;Signal;HPM_P1;HPM_P2
2022/03/08 00:00:42;;;;;;;5.45;4.85;;;2.30;99.90;;;;;;5045100;28;20591;-60
2022/03/08 00:03:08;;;;;;;5.47;4.28;;;2.30;99.90;;;;;;5026668;28;20946;-60
2022/03/08 00:05:33;;;;;;;5.90;3.72;;;2.30;99.90;;;;;;5046508;28;20160;-58
2022/03/08 00:08:00;;;;;;;4.85;3.85;;;2.30;99.90;;;;;;5046510;28;20041;-60
2022/03/08 00:10:26;;;;;;;6.03;4.47;;;2.30;99.90;;;;;;5041117;28;20739;-59
2022/03/08 00:12:52;;;;;;;6.90;4.60;;;2.30;99.90;;;;;;5020845;28;20056;-60
2022/03/08 00:15:21;;;;;;;6.25;4.50;;;2.20;99.90;;;;;;5027957;28;20052;-60
2022/03/08 00:17:51;;;;;;;5.78;5.18;;;2.20;99.90;;;;;;5043505;28;20071;-58
2022/03/08 00:20:17;;;;;;;6.15;4.28;;;2.20;99.90;;;;;;5041377;28;20079;-60
2022/03/08 00:22:43;;;;;;;4.82;4.05;;;2.10;99.90;;;;;;5022883;28;20041;-60
2022/03/08 00:25:11;;;;;;;9.07;5.28;;;2.10;99.90;;;;;;5038820;28;20091;-60
2022/03/08 00:27:37;;;;;;;7.50;5.20;;;2.10;99.90;;;;;;5041815;28;20068;-60
2022/03/08 00:30:06;;;;;;;6.97;4.75;;;2.00;99.90;;;;;;5040621;28;20148;-60
2022/03/08 00:32:32;;;;;;;5.53;4.90;;;2.00;99.90;;;;;;5008627;28;20492;-60
2022/03/08 00:34:58;;;;;;;5.97;5.43;;;1.70;99.90;;;;;;5002503;28;20069;-60
2022/03/08 00:37:24;;;;;;;6.43;4.57;;;2.00;99.90;;;;;;5002533;28;20227;-60
2022/03/08 00:39:49;;;;;;;5.00;4.22;;;1.90;99.90;;;;;;5018497;28;20080;-60
2022/03/08 00:42:15;;;;;;;5.25;4.38;;;2.00;99.90;;;;;;4996053;28;20122;-58
2022/03/08 00:44:42;;;;;;;7.30;4.72;;;1.90;99.90;;;;;;5013188;28;20046;-59
2022/03/08 00:47:08;;;;;;;6.35;4.78;;;1.90;99.90;;;;;;5013555;28;20045;-58
2022/03/08 00:49:35;;;;;;;7.50;5.13;;;2.00;99.90;;;;;;5015287;28;20111;-58
2022/03/08 00:52:01;;;;;;;6.30;4.63;;;2.00;99.90;;;;;;5033301;28;20063;-61
2022/03/08 00:54:26;;;;;;;7.30;5.68;;;1.90;99.90;;;;;;5033863;28;20041;-58
2022/03/08 00:56:52;;;;;;;6.30;5.57;;;1.80;99.90;;;;;;5034084;28;20136;-58
2022/03/08 00:59:21;;;;;;;7.75;4.95;;;1.70;99.90;;;;;;5033914;28;20733;-58
2022/03/08 01:01:46;;;;;;;4.88;4.43;;;1.80;99.90;;;;;;5022835;28;20548;-58
2022/03/08 01:04:12;;;;;;;6.07;5.13;;;1.70;99.90;;;;;;5015048;28;20037;-59
2022/03/08 01:06:40;;;;;;;9.95;6.45;;;1.70;99.90;;;;;;5014729;28;20503;-59
2022/03/08 01:09:06;;;;;;;10.25;5.38;;;1.70;99.90;;;;;;5015182;28;20088;-58
2022/03/08 01:11:32;;;;;;;4.55;4.20;;;1.60;99.90;;;;;;5015798;28;20156;-58
2022/03/08 01:13:58;;;;;;;5.45;4.93;;;1.60;99.90;;;;;;4998248;28;20143;-58
2022/03/08 01:16:24;;;;;;;6.10;4.53;;;1.70;99.90;;;;;;5015714;28;20056;-58
2022/03/08 01:18:50;;;;;;;11.50;6.82;;;1.60;99.90;;;;;;5015832;28;20500;-59
2022/03/08 01:21:16;;;;;;;6.90;4.85;;;1.60;99.90;;;;;;5015093;28;20859;-58
2022/03/08 01:23:42;;;;;;;10.07;5.82;;;1.50;99.90;;;;;;5015818;28;20049;-58
2022/03/08 01:26:08;;;;;;;7.07;6.15;;;1.40;99.90;;;;;;5015372;28;20053;-61
2022/03/08 01:28:36;;;;;;;9.07;5.60;;;1.20;99.90;;;;;;5015413;28;20076;-58
2022/03/08 01:31:02;;;;;;;8.32;6.25;;;1.20;99.90;;;;;;5015423;28;20132;-59
2022/03/08 01:33:28;;;;;;;11.60;6.63;;;1.10;99.90;;;;;;5032870;28;20080;-59
2022/03/08 01:35:55;;;;;;;9.82;5.68;;;1.10;99.90;;;;;;5035131;28;20128;-59
2022/03/08 01:38:21;;;;;;;9.77;6.43;;;1.00;99.90;;;;;;5035589;28;20044;-59
2022/03/08 01:40:46;;;;;;;8.15;6.20;;;1.00;99.90;;;;;;5034889;28;20244;-59
2022/03/08 01:43:12;;;;;;;6.97;5.07;;;0.90;99.90;;;;;;5038230;28;20065;-59
2022/03/08 01:45:38;;;;;;;8.55;5.03;;;1.00;99.90;;;;;;5056552;28;20118;-59
2022/03/08 01:48:04;;;;;;;6.28;5.30;;;0.90;99.90;;;;;;5035996;28;20088;-59
2022/03/08 01:50:30;;;;;;;7.13;5.15;;;0.80;99.90;;;;;;5051691;28;20045;-58
2022/03/08 01:52:56;;;;;;;9.70;6.20;;;0.80;99.90;;;;;;5054101;28;20200;-59
2022/03/08 01:55:21;;;;;;;8.85;5.38;;;0.80;99.90;;;;;;5039547;28;20614;-59
2022/03/08 01:57:49;;;;;;;7.25;6.55;;;0.80;99.90;;;;;;5057730;28;20052;-59
2022/03/08 02:00:17;;;;;;;10.25;6.10;;;0.90;99.90;;;;;;5057615;28;20493;-59
2022/03/08 02:02:43;;;;;;;6.63;5.45;;;0.90;99.90;;;;;;5038854;28;20048;-60
2022/03/08 02:05:10;;;;;;;10.27;6.95;;;1.00;99.90;;;;;;5057773;28;20044;-60
2022/03/08 02:07:36;;;;;;;9.48;6.03;;;1.10;99.90;;;;;;5058262;28;20527;-60
2022/03/08 02:10:03;;;;;;;6.75;5.82;;;1.10;99.90;;;;;;5035629;28;20045;-60
2022/03/08 02:12:29;;;;;;;6.30;5.65;;;1.10;99.90;;;;;;5019879;28;20053;-60
2022/03/08 02:14:54;;;;;;;10.32;6.15;;;1.10;99.90;;;;;;5048158;28;20056;-60
2022/03/08 02:17:20;;;;;;;7.15;5.82;;;1.10;99.90;;;;;;5056811;28;20040;-61
2022/03/08 02:19:45;;;;;;;7.57;5.60;;;1.10;99.90;;;;;;5057252;28;20052;-60
2022/03/08 02:22:11;;;;;;;9.00;6.50;;;1.10;99.90;;;;;;5057221;28;20108;-60
2022/03/08 02:24:36;;;;;;;6.72;6.07;;;1.00;99.90;;;;;;5057256;28;20056;-60
2022/03/08 02:27:02;;;;;;;6.25;5.45;;;1.00;99.90;;;;;;5039350;28;20055;-59
2022/03/08 02:29:28;;;;;;;6.80;5.90;;;1.00;99.90;;;;;;5039593;28;20052;-60
2022/03/08 02:31:55;;;;;;;6.65;6.05;;;0.90;99.90;;;;;;5036314;28;20647;-60
2022/03/08 02:34:21;;;;;;;9.50;7.03;;;0.90;99.90;;;;;;5037731;28;20687;-60
2022/03/08 02:37:04;;;;;;;6.97;5.63;;;0.80;99.90;;;;;;5037120;28;20051;-60
2022/03/08 02:39:29;;;;;;;8.32;6.97;;;0.70;99.90;;;;;;5037643;28;20044;-60
2022/03/08 02:41:55;;;;;;;9.57;6.25;;;0.70;99.90;;;;;;5037451;28;20048;-60
2022/03/08 02:44:20;;;;;;;9.60;7.60;;;0.60;99.90;;;;;;5037004;28;20127;-60
2022/03/08 02:46:46;;;;;;;8.32;5.85;;;0.60;99.90;;;;;;5019870;28;20147;-60
2022/03/08 02:49:12;;;;;;;10.32;7.22;;;0.60;99.90;;;;;;5050049;28;20043;-60
2022/03/08 02:51:37;;;;;;;12.70;7.18;;;0.70;99.90;;;;;;5056356;28;20102;-60
2022/03/08 02:54:03;;;;;;;8.98;6.90;;;0.60;99.90;;;;;;5038537;28;20857;-60
2022/03/08 02:56:30;;;;;;;8.18;6.65;;;0.60;99.90;;;;;;5048890;28;20103;-60
2022/03/08 02:58:55;;;;;;;7.50;6.22;;;0.60;99.90;;;;;;5055776;28;20092;-60
2022/03/08 03:01:21;;;;;;;8.30;6.68;;;0.50;99.90;;;;;;5056409;28;20141;-60
2022/03/08 03:03:47;;;;;;;7.93;7.15;;;0.60;99.90;;;;;;5057087;28;20119;-60
2022/03/08 03:06:12;;;;;;;9.45;6.57;;;0.50;99.90;;;;;;5056131;28;20230;-60
2022/03/08 03:08:38;;;;;;;7.93;5.82;;;0.50;99.90;;;;;;5056773;28;20135;-60
2022/03/08 03:11:03;;;;;;;9.77;7.95;;;0.40;99.90;;;;;;5056500;28;20052;-60
2022/03/08 03:13:29;;;;;;;6.55;5.88;;;0.40;99.90;;;;;;5056137;28;20116;-60
2022/03/08 03:15:54;;;;;;;8.15;6.10;;;0.10;99.90;;;;;;5056845;28;20124;-60
2022/03/08 03:18:20;;;;;;;6.97;6.35;;;0.50;99.90;;;;;;5056967;28;20488;-60
2022/03/08 03:20:45;;;;;;;9.25;6.78;;;0.60;99.90;;;;;;5056563;28;20431;-60
2022/03/08 03:23:11;;;;;;;7.93;6.57;;;0.70;99.90;;;;;;5056811;28;20063;-60
2022/03/08 03:25:37;;;;;;;12.00;7.72;;;0.70;99.90;;;;;;5038772;28;20048;-60
2022/03/08 03:28:02;;;;;;;9.13;7.95;;;0.60;99.90;;;;;;5051542;28;20047;-60
2022/03/08 03:30:28;;;;;;;7.93;7.13;;;0.50;99.90;;;;;;5051422;28;20056;-60
2022/03/08 03:32:54;;;;;;;10.95;7.68;;;0.30;99.90;;;;;;5037380;28;20060;-60
2022/03/08 03:35:19;;;;;;;8.38;7.15;;;0.20;99.90;;;;;;5030933;28;20052;-60
2022/03/08 03:37:45;;;;;;;8.57;7.18;;;0.20;99.90;;;;;;5056025;28;20168;-60
2022/03/08 03:40:11;;;;;;;7.93;7.13;;;0.10;99.90;;;;;;5055310;28;20086;-60
2022/03/08 03:42:38;;;;;;;9.70;7.47;;;0.00;99.90;;;;;;5055895;28;20101;-60
2022/03/08 03:45:04;;;;;;;8.48;7.30;;;-0.10;99.90;;;;;;5054568;28;20091;-60
2022/03/08 03:47:30;;;;;;;8.82;7.93;;;-0.20;99.90;;;;;;5055397;28;20087;-60
2022/03/08 03:49:55;;;;;;;9.63;7.75;;;-0.30;99.90;;;;;;5056248;28;20123;-60
2022/03/08 03:52:21;;;;;;;11.38;7.97;;;-0.30;99.90;;;;;;5056041;28;20052;-60
2022/03/08 03:54:47;;;;;;;8.98;8.10;;;-0.20;99.90;;;;;;5037902;28;20044;-60
2022/03/08 03:57:12;;;;;;;14.43;8.70;;;-0.20;99.90;;;;;;5056241;28;20044;-60
2022/03/08 03:59:39;;;;;;;7.47;6.75;;;-0.30;99.90;;;;;;5034610;28;20064;-60
2022/03/08 04:02:05;;;;;;;8.02;6.85;;;-0.30;99.90;;;;;;5035368;28;20056;-60
2022/03/08 04:04:30;;;;;;;9.10;7.68;;;-0.30;99.90;;;;;;5035690;28;20502;-60
2022/03/08 04:06:56;;;;;;;11.63;8.15;;;-0.40;99.90;;;;;;5037528;28;20048;-61
2022/03/08 04:09:21;;;;;;;9.20;7.63;;;-0.40;99.90;;;;;;5037431;28;20118;-60
2022/03/08 04:11:47;;;;;;;9.82;7.00;;;-0.50;99.90;;;;;;5055553;28;20098;-60
2022/03/08 04:14:12;;;;;;;8.73;6.82;;;-0.50;99.90;;;;;;5037344;28;20063;-60
2022/03/08 04:16:38;;;;;;;10.25;7.13;;;-0.50;99.90;;;;;;5054191;28;20052;-59
2022/03/08 04:19:04;;;;;;;10.43;7.20;;;-0.50;99.90;;;;;;5055189;28;20040;-60
2022/03/08 04:21:29;;;;;;;10.55;7.93;;;-0.60;99.90;;;;;;5055008;28;20040;-59
2022/03/08 04:23:55;;;;;;;12.00;8.05;;;-0.60;99.90;;;;;;5036259;28;20059;-60
2022/03/08 04:26:21;;;;;;;12.65;8.05;;;-0.70;99.90;;;;;;5055030;28;20049;-60
2022/03/08 04:28:46;;;;;;;14.82;8.85;;;-0.70;99.90;;;;;;5055562;28;20045;-60
2022/03/08 04:31:12;;;;;;;10.48;8.15;;;-0.70;99.90;;;;;;5055572;28;20135;-60
2022/03/08 04:33:37;;;;;;;10.27;8.27;;;-0.70;99.90;;;;;;5056387;28;20099;-59
2022/03/08 04:36:03;;;;;;;11.93;9.20;;;-0.70;99.90;;;;;;5038024;28;20087;-60
2022/03/08 04:38:29;;;;;;;10.45;8.13;;;-0.70;99.90;;;;;;5055102;28;20652;-60
2022/03/08 04:40:54;;;;;;;13.65;7.97;;;-0.50;99.90;;;;;;5037296;28;20056;-60
2022/03/08 04:43:20;;;;;;;12.45;8.30;;;-0.50;99.90;;;;;;5054536;28;20131;-60
2022/03/08 04:45:45;;;;;;;8.65;7.25;;;-0.40;99.90;;;;;;5055242;28;20052;-60
2022/03/08 04:48:11;;;;;;;11.65;9.07;;;-0.30;99.90;;;;;;5054977;28;20048;-60
2022/03/08 04:50:37;;;;;;;10.90;8.38;;;-0.20;99.90;;;;;;5054781;28;20240;-60
2022/03/08 04:53:03;;;;;;;16.02;9.10;;;-0.20;99.90;;;;;;5055465;28;20051;-60
2022/03/08 04:55:29;;;;;;;14.15;8.73;;;-0.10;99.90;;;;;;5055006;28;20131;-60
2022/03/08 04:57:54;;;;;;;15.45;8.60;;;-0.10;99.90;;;;;;5054468;28;20582;-60
2022/03/08 05:00:20;;;;;;;13.20;8.32;;;-0.10;99.90;;;;;;5036915;28;20044;-59
2022/03/08 05:02:46;;;;;;;13.05;8.98;;;-0.10;99.90;;;;;;5055080;28;20049;-60
2022/03/08 05:05:13;;;;;;;14.07;8.77;;;-0.30;99.90;;;;;;5054357;28;20094;-59
2022/03/08 05:07:39;;;;;;;8.65;7.55;;;-0.30;99.90;;;;;;5055070;28;20088;-59
2022/03/08 05:10:08;;;;;;;12.55;8.52;;;-0.40;99.90;;;;;;5054803;28;20048;-59
2022/03/08 05:12:35;;;;;;;11.43;7.78;;;-0.40;99.90;;;;;;5054247;28;20040;-59
2022/03/08 05:15:00;;;;;;;12.25;8.45;;;-0.30;99.90;;;;;;5054787;28;20787;-59
2022/03/08 05:17:26;;;;;;;17.73;10.25;;;-0.30;99.90;;;;;;5053798;28;20055;-59
2022/03/08 05:19:52;;;;;;;14.40;8.40;;;-0.20;99.90;;;;;;5054050;28;20044;-58
2022/03/08 05:22:18;;;;;;;15.50;9.35;;;-0.20;99.90;;;;;;5054326;28;20049;-59
2022/03/08 05:24:43;;;;;;;13.52;7.97;;;-0.90;99.90;;;;;;5054844;28;20060;-59
2022/03/08 05:27:10;;;;;;;11.30;8.77;;;-0.20;99.90;;;;;;5054451;28;20118;-59
2022/03/08 05:29:36;;;;;;;11.70;8.68;;;-0.20;99.90;;;;;;5036750;28;20080;-60
2022/03/08 05:32:01;;;;;;;12.60;8.88;;;-0.20;99.90;;;;;;5054003;28;20143;-60
2022/03/08 05:34:27;;;;;;;10.63;8.07;;;-0.50;99.90;;;;;;5034007;28;20856;-60
2022/03/08 05:36:53;;;;;;;13.95;8.88;;;-0.30;99.90;;;;;;5034777;28;20345;-60
2022/03/08 05:39:19;;;;;;;15.35;9.77;;;-0.30;99.90;;;;;;5029950;28;20048;-58
2022/03/08 05:41:44;;;;;;;14.55;9.95;;;-0.20;99.90;;;;;;5053340;28;20045;-60
2022/03/08 05:44:10;;;;;;;13.25;8.95;;;-0.10;99.90;;;;;;5053686;28;20041;-60
2022/03/08 05:46:36;;;;;;;15.10;9.85;;;-0.20;99.90;;;;;;5054108;28;20051;-60
2022/03/08 05:49:02;;;;;;;10.63;8.38;;;-0.10;99.90;;;;;;5054248;28;20071;-60
2022/03/08 05:51:28;;;;;;;12.23;9.55;;;-0.10;99.90;;;;;;5041714;28;20045;-60
2022/03/08 05:53:53;;;;;;;14.23;10.77;;;-0.10;99.90;;;;;;5046169;28;20041;-60
2022/03/08 05:56:19;;;;;;;12.43;9.70;;;-0.10;99.90;;;;;;5035991;28;20970;-60
2022/03/08 05:58:45;;;;;;;13.85;9.02;;;-0.10;99.90;;;;;;5053957;28;20095;-60
2022/03/08 06:01:11;;;;;;;18.63;10.05;;;-0.20;99.90;;;;;;5053533;28;20053;-60
2022/03/08 06:03:36;;;;;;;17.65;9.68;;;-0.20;99.90;;;;;;5036464;28;20057;-60
2022/03/08 06:06:02;;;;;;;14.23;9.77;;;-0.30;99.90;;;;;;5054768;28;20876;-59
2022/03/08 06:08:27;;;;;;;13.88;10.27;;;-0.30;99.90;;;;;;5053979;28;20491;-60
2022/03/08 06:10:53;;;;;;;22.40;11.43;;;-0.30;99.90;;;;;;5054566;28;20052;-60
2022/03/08 06:13:19;;;;;;;16.38;10.15;;;-0.40;99.90;;;;;;5052732;28;20126;-60
2022/03/08 06:15:45;;;;;;;14.82;8.95;;;-0.40;99.90;;;;;;5033171;28;20780;-60
2022/03/08 06:18:10;;;;;;;13.98;9.60;;;-0.50;99.90;;;;;;5034005;28;20651;-60
2022/03/08 06:20:36;;;;;;;15.38;9.88;;;-0.70;99.90;;;;;;5034167;28;20509;-60
2022/03/08 06:23:01;;;;;;;15.77;11.82;;;-0.70;99.90;;;;;;5043300;28;20053;-60
2022/03/08 06:25:27;;;;;;;18.45;10.25;;;-0.90;99.90;;;;;;5054458;28;20150;-59
2022/03/08 06:27:52;;;;;;;16.13;10.25;;;-0.90;99.90;;;;;;5054699;28;20052;-60
2022/03/08 06:30:18;;;;;;;15.63;9.57;;;-0.80;99.90;;;;;;5055745;28;20075;-59
2022/03/08 06:32:44;;;;;;;12.52;9.65;;;-0.80;99.90;;;;;;5055111;28;20130;-59
2022/03/08 06:35:10;;;;;;;14.77;11.43;;;-0.80;99.90;;;;;;5055369;28;20088;-60
2022/03/08 06:37:36;;;;;;;18.70;10.25;;;-0.80;99.90;;;;;;5054454;28;20041;-60
2022/03/08 06:40:03;;;;;;;15.40;11.40;;;-0.70;99.90;;;;;;5054211;28;20047;-60
2022/03/08 06:42:29;;;;;;;15.18;10.32;;;-0.70;99.90;;;;;;5036931;28;20155;-60
2022/03/08 06:44:54;;;;;;;18.52;8.60;;;-0.60;99.90;;;;;;5054257;28;20084;-60
2022/03/08 06:47:20;;;;;;;19.38;11.63;;;-0.50;99.90;;;;;;5036235;28;20155;-60
2022/03/08 06:49:45;;;;;;;17.15;10.75;;;-0.40;99.90;;;;;;5054480;28;20075;-60
2022/03/08 06:52:11;;;;;;;20.70;10.70;;;-0.40;99.90;;;;;;5039790;28;20787;-59
2022/03/08 06:54:37;;;;;;;16.52;11.38;;;-0.20;99.90;;;;;;5053258;28;20044;-60
2022/03/08 06:57:03;;;;;;;13.98;9.82;;;-0.10;99.90;;;;;;5052734;28;20047;-60
2022/03/08 06:59:29;;;;;;;14.95;8.82;;;0.00;99.90;;;;;;5039761;28;20076;-59
2022/03/08 07:01:56;;;;;;;19.58;11.18;;;0.10;99.90;;;;;;5036307;28;20132;-59
2022/03/08 07:04:22;;;;;;;10.45;7.15;;;0.20;99.90;;;;;;5032374;28;20049;-60
2022/03/08 07:06:48;;;;;;;15.80;10.27;;;0.40;99.90;;;;;;5033461;28;20149;-60
2022/03/08 07:09:13;;;;;;;16.27;9.57;;;0.40;99.90;;;;;;5016115;28;20534;-60
2022/03/08 07:11:40;;;;;;;21.70;11.25;;;0.50;99.90;;;;;;5033382;28;20049;-60
2022/03/08 07:14:06;;;;;;;9.82;7.18;;;0.60;99.90;;;;;;5044185;28;20049;-60
2022/03/08 07:16:31;;;;;;;12.40;8.32;;;0.70;99.90;;;;;;5041740;28;20791;-60
2022/03/08 07:18:57;;;;;;;14.25;9.65;;;0.80;99.90;;;;;;5040673;28;20105;-60
2022/03/08 07:21:23;;;;;;;13.20;8.88;;;0.90;99.90;;;;;;5025398;28;20219;-58
2022/03/08 07:23:48;;;;;;;13.50;8.88;;;1.00;99.90;;;;;;5035946;28;20076;-59
2022/03/08 07:26:14;;;;;;;15.20;8.85;;;1.10;99.90;;;;;;5033660;28;20081;-59
2022/03/08 07:28:39;;;;;;;19.73;9.45;;;1.30;99.90;;;;;;5035894;28;20057;-57
2022/03/08 07:31:05;;;;;;;16.48;9.38;;;1.30;99.90;;;;;;5042379;28;20076;-60
2022/03/08 07:33:31;;;;;;;15.70;9.25;;;1.40;99.90;;;;;;5044727;28;20064;-60
2022/03/08 07:35:57;;;;;;;15.07;9.02;;;1.50;99.90;;;;;;5042588;28;20041;-58
2022/03/08 07:38:22;;;;;;;14.55;10.40;;;1.60;99.90;;;;;;5042387;28;20537;-58
2022/03/08 07:40:48;;;;;;;13.18;9.30;;;1.60;99.90;;;;;;5019288;28;20045;-58
2022/03/08 07:43:14;;;;;;;18.38;9.32;;;1.80;99.90;;;;;;5044281;28;20053;-57
2022/03/08 07:45:39;;;;;;;18.90;10.82;;;1.80;99.90;;;;;;5025747;28;20044;-57
2022/03/08 07:48:05;;;;;;;17.48;9.48;;;1.90;99.90;;;;;;5039028;28;20052;-57
2022/03/08 07:50:32;;;;;;;16.85;10.02;;;2.00;99.90;;;;;;5018263;28;20116;-59
2022/03/08 07:52:59;;;;;;;11.95;8.95;;;2.00;99.90;;;;;;5040276;28;20148;-65
2022/03/08 07:55:26;;;;;;;16.83;10.63;;;2.10;99.90;;;;;;5040361;28;20056;-60
2022/03/08 07:57:52;;;;;;;14.20;9.82;;;2.20;99.90;;;;;;5053599;28;20422;-60
2022/03/08 08:00:18;;;;;;;16.85;9.98;;;2.30;99.90;;;;;;5052676;28;20040;-60
2022/03/08 08:02:43;;;;;;;14.10;9.85;;;2.40;99.90;;;;;;5051674;28;20825;-60
2022/03/08 08:05:09;;;;;;;13.98;10.32;;;2.50;99.90;;;;;;5048639;28;20056;-60
2022/03/08 08:07:34;;;;;;;19.20;10.07;;;2.60;99.90;;;;;;5034296;28;20776;-58
2022/03/08 08:10:00;;;;;;;17.90;10.85;;;2.60;99.90;;;;;;5052871;28;20109;-58
2022/03/08 08:12:26;;;;;;;13.45;8.73;;;2.70;99.90;;;;;;5052838;28;20126;-58
2022/03/08 08:14:52;;;;;;;17.85;10.65;;;2.80;99.90;;;;;;5052428;28;20077;-58
2022/03/08 08:17:18;;;;;;;18.67;10.73;;;2.80;99.90;;;;;;5052035;28;20518;-58
2022/03/08 08:19:44;;;;;;;16.00;8.70;;;2.70;99.90;;;;;;5035173;28;20818;-59
2022/03/08 08:22:09;;;;;;;14.55;9.65;;;3.00;99.90;;;;;;5025364;28;20048;-58
2022/03/08 08:24:35;;;;;;;18.00;9.68;;;3.30;99.90;;;;;;5040474;28;20044;-58
2022/03/08 08:27:01;;;;;;;14.52;10.20;;;3.50;99.90;;;;;;5035995;28;20067;-60
2022/03/08 08:29:26;;;;;;;13.63;9.45;;;3.70;99.90;;;;;;5038495;28;20049;-59
2022/03/08 08:31:52;;;;;;;14.57;9.13;;;3.90;99.90;;;;;;5044443;28;20045;-58
2022/03/08 08:34:18;;;;;;;12.95;9.30;;;4.00;99.90;;;;;;5039703;28;20045;-58
2022/03/08 08:36:46;;;;;;;13.55;8.82;;;4.20;99.90;;;;;;5037378;28;20040;-58
2022/03/08 08:39:14;;;;;;;15.50;9.63;;;4.40;99.90;;;;;;5046573;28;20346;-60
2022/03/08 08:41:41;;;;;;;13.80;9.93;;;4.70;99.90;;;;;;5020641;28;20144;-59
2022/03/08 08:44:06;;;;;;;16.10;8.55;;;4.90;99.90;;;;;;5042799;28;20552;-59
2022/03/08 08:46:32;;;;;;;12.68;8.23;;;5.20;99.90;;;;;;5041920;28;20051;-59
2022/03/08 08:48:57;;;;;;;12.35;8.00;;;5.50;99.90;;;;;;5046404;28;20529;-60
2022/03/08 08:51:23;;;;;;;13.60;8.65;;;5.80;99.90;;;;;;5037788;28;20044;-60
2022/03/08 08:53:48;;;;;;;12.98;9.55;;;6.20;99.90;;;;;;5036848;28;20036;-59
2022/03/08 08:56:14;;;;;;;10.15;8.43;;;6.40;99.90;;;;;;5043835;28;20048;-60
2022/03/08 08:58:39;;;;;;;12.15;8.38;;;6.70;99.90;;;;;;5046329;28;20064;-60
2022/03/08 09:01:05;;;;;;;9.35;7.60;;;7.00;99.90;;;;;;5041282;28;20052;-60
2022/03/08 09:03:30;;;;;;;14.10;7.82;;;7.70;99.90;;;;;;5038353;28;20041;-60
2022/03/08 09:05:57;;;;;;;13.27;7.68;;;8.60;99.90;;;;;;5038721;28;20587;-58
2022/03/08 09:08:24;;;;;;;10.27;7.72;;;9.50;99.90;;;;;;5041122;28;20156;-59
2022/03/08 09:10:54;;;;;;;10.52;7.72;;;10.90;99.90;;;;;;5037706;28;20049;-60
2022/03/08 09:13:21;;;;;;;11.10;7.68;;;12.00;99.40;;;;;;5038716;28;20765;-59
2022/03/08 09:15:47;;;;;;;9.15;7.70;;;12.80;97.30;;;;;;5039344;28;20347;-60
2022/03/08 09:18:14;;;;;;;10.75;8.27;;;13.40;95.40;;;;;;5044257;28;20051;-60
2022/03/08 09:20:39;;;;;;;9.80;7.45;;;13.80;93.90;;;;;;5039913;28;20055;-60
2022/03/08 09:23:06;;;;;;;10.68;7.68;;;14.40;92.80;;;;;;5046955;28;20044;-60
2022/03/08 09:25:33;;;;;;;9.70;7.75;;;14.40;91.60;;;;;;5036414;28;20049;-60
2022/03/08 09:27:59;;;;;;;10.02;7.57;;;14.50;89.90;;;;;;5018824;28;20052;-60
2022/03/08 09:30:25;;;;;;;8.18;7.35;;;14.60;87.10;;;;;;5036227;28;20091;-60
2022/03/08 09:32:51;;;;;;;10.63;7.90;;;14.90;85.90;;;;;;5052337;28;20060;-59
2022/03/08 09:35:17;;;;;;;10.70;7.47;;;15.00;83.50;;;;;;5054617;28;20494;-60
2022/03/08 09:37:42;;;;;;;13.20;7.97;;;15.10;82.00;;;;;;5021573;28;20624;-59
2022/03/08 09:40:09;;;;;;;10.98;7.10;;;15.10;79.10;;;;;;5035260;28;20088;-60
2022/03/08 09:42:35;;;;;;;8.15;6.97;;;15.20;76.60;;;;;;5034383;28;20084;-60
2022/03/08 09:45:00;;;;;;;9.65;6.85;;;15.50;78.30;;;;;;5039065;28;20635;-60
2022/03/08 09:47:26;;;;;;;7.85;7.05;;;15.70;70.50;;;;;;5053201;28;20047;-60
2022/03/08 09:49:52;;;;;;;7.32;6.50;;;15.70;72.40;;;;;;5054018;28;20062;-60
2022/03/08 09:52:19;;;;;;;8.95;7.18;;;15.60;69.80;;;;;;5052998;28;20036;-61
2022/03/08 09:54:45;;;;;;;7.93;6.68;;;15.50;69.70;;;;;;5053360;28;20518;-59
2022/03/08 09:57:13;;;;;;;9.23;6.38;;;16.00;71.50;;;;;;5054330;28;20093;-59
2022/03/08 09:59:39;;;;;;;9.77;7.03;;;16.00;67.50;;;;;;5053274;28;20055;-60
2022/03/08 10:02:05;;;;;;;7.85;6.45;;;15.80;65.10;;;;;;5054023;28;20052;-60
2022/03/08 10:04:31;;;;;;;9.60;6.70;;;15.70;63.60;;;;;;5056779;28;20043;-60
2022/03/08 10:06:57;;;;;;;8.95;7.03;;;15.40;62.10;;;;;;5057414;28;20040;-60
2022/03/08 10:09:23;;;;;;;7.32;6.50;;;15.70;62.30;;;;;;5058357;28;20041;-60
2022/03/08 10:11:54;;;;;;;7.70;6.80;;;15.90;60.60;;;;;;5058305;28;20052;-60
2022/03/08 10:14:38;;;;;;;8.93;6.07;;;16.20;61.30;;;;;;5057514;28;20101;-59
2022/03/08 10:17:09;;;;;;;7.20;6.47;;;16.40;59.40;;;;;;5057220;28;20120;-60
2022/03/08 10:19:48;;;;;;;7.63;6.65;;;16.40;59.10;;;;;;5057724;28;20382;-60
2022/03/08 10:22:44;;;;;;;8.90;6.75;;;16.70;59.80;;;;;;5056861;28;20048;-60
2022/03/08 10:25:24;;;;;;;8.98;6.80;;;17.30;59.90;;;;;;5036641;28;20423;-61
2022/03/08 10:27:56;;;;;;;7.43;6.25;;;17.90;59.20;;;;;;5056568;28;20048;-60
2022/03/08 10:30:46;;;;;;;8.77;4.95;;;17.90;57.20;;;;;;5037509;28;20048;-60
2022/03/08 10:33:19;;;;;;;5.38;4.88;;;17.90;55.20;;;;;;5054669;28;20088;-60
2022/03/08 10:35:46;;;;;;;5.55;5.05;;;17.70;53.90;;;;;;5053551;28;20047;-60
2022/03/08 10:38:12;;;;;;;5.57;5.07;;;17.50;52.00;;;;;;5058279;28;20044;-60
2022/03/08 10:40:38;;;;;;;5.28;4.72;;;17.30;51.50;;;;;;5057147;28;20113;-60
2022/03/08 10:43:15;;;;;;;6.93;4.85;;;17.30;50.50;;;;;;5057662;28;20382;-60
2022/03/08 10:45:46;;;;;;;5.38;4.22;;;17.60;51.20;;;;;;5057181;28;20041;-60
2022/03/08 10:48:18;;;;;;;5.50;4.90;;;17.60;50.80;;;;;;5057707;28;20561;-61
2022/03/08 10:50:46;;;;;;;5.07;4.57;;;16.90;49.70;;;;;;5057741;28;20044;-60
2022/03/08 10:53:13;;;;;;;5.93;4.45;;;16.40;50.50;;;;;;5058189;28;20492;-60
2022/03/08 10:55:45;;;;;;;7.60;4.88;;;15.40;50.40;;;;;;5057804;28;20084;-60
2022/03/08 10:58:12;;;;;;;5.57;5.07;;;14.60;51.40;;;;;;5057393;28;20408;-60
2022/03/08 11:00:45;;;;;;;7.25;4.85;;;13.30;53.20;;;;;;5057725;28;20145;-59
2022/03/08 11:03:12;;;;;;;5.72;4.43;;;12.50;55.20;;;;;;5057637;28;20056;-59
2022/03/08 11:05:39;;;;;;;6.90;4.45;;;11.70;55.60;;;;;;5057607;28;20044;-59
2022/03/08 11:08:06;;;;;;;7.90;6.30;;;11.30;56.50;;;;;;5057929;28;20049;-59
2022/03/08 11:10:32;;;;;;;8.20;4.60;;;11.00;58.00;;;;;;5056809;28;20044;-59
2022/03/08 11:12:59;;;;;;;6.25;5.05;;;10.80;59.20;;;;;;5057115;28;20570;-60
2022/03/08 11:15:28;;;;;;;7.40;4.80;;;10.60;59.60;;;;;;5056934;28;20580;-59
2022/03/08 11:17:56;;;;;;;4.82;4.30;;;10.50;61.40;;;;;;5056979;28;20048;-59
2022/03/08 11:20:23;;;;;;;7.05;5.50;;;10.50;61.60;;;;;;5057158;28;20047;-59
2022/03/08 11:22:54;;;;;;;7.15;4.95;;;10.40;62.80;;;;;;5057045;28;20245;-59
2022/03/08 11:25:21;;;;;;;5.45;4.93;;;10.40;64.20;;;;;;5056204;28;20040;-59
2022/03/08 11:27:48;;;;;;;7.43;4.78;;;10.30;65.10;;;;;;5056793;28;20045;-59
2022/03/08 11:30:18;;;;;;;5.13;4.60;;;10.30;64.60;;;;;;5057269;28;20063;-59
2022/03/08 11:33:02;;;;;;;8.70;5.18;;;10.20;65.10;;;;;;5038707;28;20064;-58
2022/03/08 11:35:57;;;;;;;6.32;4.70;;;10.30;65.70;;;;;;5039871;28;20834;-61
2022/03/08 11:38:22;;;;;;;6.32;4.97;;;10.30;66.60;;;;;;5034840;28;20850;-61
2022/03/08 11:40:53;;;;;;;5.13;4.70;;;10.40;66.90;;;;;;5037568;28;20048;-61
2022/03/08 11:43:20;;;;;;;7.72;4.68;;;10.40;67.60;;;;;;5019148;28;20056;-60
2022/03/08 11:45:50;;;;;;;4.63;3.67;;;10.50;66.30;;;;;;5018414;28;20048;-60
2022/03/08 11:48:21;;;;;;;6.07;4.40;;;10.40;64.90;;;;;;5036956;28;20084;-60
2022/03/08 11:50:48;;;;;;;5.28;3.58;;;10.40;66.10;;;;;;5018962;28;20053;-60
2022/03/08 11:53:23;;;;;;;6.10;4.45;;;10.40;65.40;;;;;;5043302;28;20052;-60
2022/03/08 11:55:56;;;;;;;5.82;4.53;;;10.10;65.90;;;;;;5056161;28;20048;-61
2022/03/08 11:58:47;;;;;;;4.60;3.45;;;10.30;66.30;;;;;;5056141;28;20452;-60
2022/03/08 12:01:25;;;;;;;5.78;4.18;;;10.40;67.60;;;;;;5037288;28;20125;-60
2022/03/08 12:04:05;;;;;;;4.72;3.47;;;10.40;67.20;;;;;;5056320;28;20079;-60
2022/03/08 12:06:36;;;;;;;7.03;3.90;;;10.50;66.50;;;;;;5037275;28;20044;-60
2022/03/08 12:09:13;;;;;;;4.13;2.80;;;10.50;66.50;;;;;;5056044;28;20041;-61
2022/03/08 12:11:44;;;;;;;3.72;3.30;;;10.60;64.10;;;;;;5055933;28;20164;-60
2022/03/08 12:14:11;;;;;;;4.60;3.35;;;10.60;64.10;;;;;;5055667;28;20045;-60
2022/03/08 12:16:39;;;;;;;4.93;3.30;;;10.60;65.20;;;;;;5038427;28;20045;-60
2022/03/08 12:19:06;;;;;;;3.42;3.05;;;10.70;64.50;;;;;;5038127;28;20043;-60
2022/03/08 12:21:59;;;;;;;5.10;3.42;;;11.20;65.50;;;;;;5055445;28;20089;-61
2022/03/08 12:24:26;;;;;;;4.65;3.60;;;10.70;64.60;;;;;;5012223;28;20053;-58
2022/03/08 12:26:53;;;;;;;3.90;3.10;;;10.80;64.90;;;;;;5016062;28;20214;-58
2022/03/08 12:29:36;;;;;;;3.60;3.30;;;10.70;64.40;;;;;;5015532;28;20567;-58
2022/03/08 12:32:03;;;;;;;4.35;3.10;;;10.80;63.60;;;;;;5033508;28;20525;-58
2022/03/08 12:34:42;;;;;;;4.18;3.30;;;10.70;63.80;;;;;;5033509;28;20819;-59
2022/03/08 12:37:09;;;;;;;4.97;3.72;;;10.80;63.10;;;;;;5033235;28;20048;-59
2022/03/08 12:40:00;;;;;;;5.20;3.72;;;10.90;63.40;;;;;;5049166;28;20051;-60
2022/03/08 12:42:31;;;;;;;4.63;3.70;;;10.90;64.00;;;;;;5052378;28;20052;-59
2022/03/08 12:45:09;;;;;;;4.47;3.40;;;11.00;62.90;;;;;;5052987;28;20056;-59